KTCL/TCL METAR and TAF weather

Enter ICAO airport designator
Station Type Date Time Source
KTCL METAR 2020/07/12 01:53 UTC NOAA

KTCL 120153Z 00000KT 10SM CLR 26/23 A2993 RMK AO2 SLP134 T02610233


Station Type Date Time Source
KTCL Decoded METAR 2020/07/12 01:53 UTC NOAA

TUSCALOOSA REGIONAL AIRPORT, AL, United States (KTCL) 33-13N 087-37W
Jul 11, 2020 - 09:53 PM EDT / 2020.07.12 0153 UTC
Wind: Calm:0
Visibility: 10 mile(s):0
Sky conditions: clear
Temperature: 79.0 F (26.1 C)
Dew Point: 73.9 F (23.3 C)
Relative Humidity: 84%
Pressure (altimeter): 29.93 in. Hg (1013 hPa)
ob: KTCL 120153Z 00000KT 10SM CLR 26/23 A2993 RMK AO2 SLP134 T02610233
cycle: 2

Station Type Date Time Source
KTCL TAF 2020/07/11 18:40 UTC NOAA

TAF KTCL 111738Z 1118/1218 35010G18KT P6SM SKC
FM120000 36003KT P6SM SKC
FM121200 25006KT P6SM FEW100 PROB30 1212/1217 4SM TSRA BKN100CB

Example: see airport list